createdAt,value
2018-03-27T00:00:59.117Z,13.43
2018-03-27T00:03:26.580Z,8.88
2018-03-27T00:05:54.044Z,6.12
2018-03-27T00:08:21.603Z,8.15
2018-03-27T00:10:49.092Z,7.40
2018-03-27T00:13:17.320Z,7.30
2018-03-27T00:15:44.969Z,11.50
2018-03-27T00:18:12.430Z,9.00
2018-03-27T00:20:39.896Z,7.68
2018-03-27T00:23:07.348Z,13.23
2018-03-27T00:25:34.838Z,9.65
2018-03-27T00:28:14.149Z,10.55
2018-03-27T00:30:53.550Z,9.77
2018-03-27T00:33:32.954Z,9.10
2018-03-27T00:36:12.280Z,10.02
2018-03-27T00:38:51.708Z,11.00
2018-03-27T00:44:34.855Z,12.40
2018-03-27T00:47:02.357Z,11.35
2018-03-27T00:49:29.936Z,10.38
2018-03-27T00:51:57.396Z,9.55
2018-03-27T00:54:24.999Z,7.32
2018-03-27T00:56:53.233Z,7.75
2018-03-27T00:59:20.738Z,7.95
2018-03-27T01:01:48.207Z,9.07
2018-03-27T01:04:16.470Z,8.38
2018-03-27T01:06:44.733Z,5.82
2018-03-27T01:09:12.198Z,9.13
2018-03-27T01:11:39.667Z,11.27
2018-03-27T01:14:07.955Z,7.90
2018-03-27T01:16:35.396Z,11.82
2018-03-27T01:19:03.666Z,7.75
2018-03-27T01:21:31.138Z,10.18
2018-03-27T01:23:59.393Z,12.70
2018-03-27T01:26:26.918Z,9.50
2018-03-27T01:28:54.441Z,7.75
2018-03-27T01:31:21.919Z,7.40
2018-03-27T01:33:49.429Z,8.93
2018-03-27T01:36:17.058Z,11.35
2018-03-27T01:38:45.244Z,8.90
2018-03-27T01:41:12.717Z,10.82
2018-03-27T01:43:40.190Z,10.43
2018-03-27T01:46:08.423Z,9.25
2018-03-27T01:48:35.890Z,16.45
2018-03-27T01:51:03.356Z,11.50
2018-03-27T01:53:30.821Z,9.23
2018-03-27T01:55:59.105Z,12.13
2018-03-27T01:58:27.367Z,11.27
2018-03-27T02:00:54.927Z,13.15
2018-03-27T02:03:22.405Z,12.98
2018-03-27T02:05:50.638Z,12.40
2018-03-27T02:08:19.386Z,16.42
2018-03-27T02:10:46.357Z,11.55
2018-03-27T02:13:19.438Z,13.23
2018-03-27T02:15:53.162Z,16.95
2018-03-27T02:18:26.247Z,16.75
2018-03-27T02:20:59.456Z,18.98
2018-03-27T02:23:26.945Z,15.98
2018-03-27T02:25:55.298Z,16.58
2018-03-27T02:28:22.798Z,16.02
2018-03-27T02:30:50.313Z,15.55
2018-03-27T02:33:18.559Z,14.75
2018-03-27T02:35:46.051Z,15.20
2018-03-27T02:38:13.523Z,16.35
2018-03-27T02:40:41.752Z,20.02
2018-03-27T02:43:09.224Z,14.93
2018-03-27T02:45:36.699Z,17.52
2018-03-27T02:48:04.250Z,13.40
2018-03-27T02:50:31.723Z,19.67
2018-03-27T02:52:59.967Z,14.48
2018-03-27T02:55:27.437Z,14.30
2018-03-27T02:57:54.902Z,14.38
2018-03-27T03:00:23.269Z,13.70
2018-03-27T03:02:50.742Z,16.50
2018-03-27T03:05:19.007Z,15.95
2018-03-27T03:07:46.479Z,13.98
2018-03-27T03:10:14.742Z,14.05
2018-03-27T03:12:42.210Z,13.70
2018-03-27T03:15:10.469Z,14.07
2018-03-27T03:17:37.920Z,14.40
2018-03-27T03:20:05.403Z,15.63
2018-03-27T03:22:32.867Z,15.00
2018-03-27T03:25:00.365Z,19.83
2018-03-27T03:27:27.820Z,11.60
2018-03-27T03:29:55.300Z,10.95
2018-03-27T03:32:22.961Z,9.63
2018-03-27T03:34:50.491Z,16.35
2018-03-27T03:37:17.958Z,16.02
2018-03-27T03:39:45.459Z,13.23
2018-03-27T03:42:13.700Z,16.30
2018-03-27T03:44:41.168Z,15.10
2018-03-27T03:47:10.182Z,24.58
2018-03-27T03:49:38.435Z,16.77
2018-03-27T03:52:05.917Z,13.98
2018-03-27T03:54:34.190Z,12.52
2018-03-27T03:57:02.452Z,14.18
2018-03-27T03:59:30.060Z,12.43
2018-03-27T04:01:57.619Z,13.93
2018-03-27T04:04:25.109Z,15.55
2018-03-27T04:06:52.589Z,24.77
2018-03-27T04:09:20.053Z,13.55
2018-03-27T04:11:48.330Z,20.65
2018-03-27T04:14:16.559Z,17.35
2018-03-27T04:16:44.018Z,14.52
2018-03-27T04:19:11.481Z,16.35
2018-03-27T04:21:38.950Z,18.27
2018-03-27T04:24:06.420Z,15.88
2018-03-27T04:26:35.414Z,23.15
2018-03-27T04:29:02.885Z,17.65
2018-03-27T04:31:31.142Z,23.38
2018-03-27T04:33:58.632Z,20.95
2018-03-27T04:36:26.079Z,22.55
2018-03-27T04:38:54.329Z,23.87
2018-03-27T04:41:21.802Z,20.70
2018-03-27T04:43:50.061Z,22.17
2018-03-27T04:46:17.612Z,25.30
2018-03-27T04:48:45.078Z,23.55
2018-03-27T04:51:12.635Z,23.62
2018-03-27T04:53:40.112Z,28.92
2018-03-27T04:56:07.588Z,28.02
2018-03-27T04:58:35.168Z,25.05
2018-03-27T05:01:02.643Z,26.48
2018-03-27T05:03:30.146Z,27.83
2018-03-27T05:05:58.409Z,24.35
2018-03-27T05:08:25.870Z,30.77
2018-03-27T05:10:53.347Z,27.73
2018-03-27T05:13:20.874Z,26.45
2018-03-27T05:15:48.374Z,35.40
2018-03-27T05:18:15.855Z,25.70
2018-03-27T05:20:43.344Z,24.27
2018-03-27T05:23:10.873Z,28.73
2018-03-27T05:25:38.346Z,29.73
2018-03-27T05:28:05.823Z,27.23
2018-03-27T05:30:33.289Z,28.87
2018-03-27T05:33:01.536Z,28.12
2018-03-27T05:35:29.012Z,29.67
2018-03-27T05:37:56.477Z,30.48
2018-03-27T05:40:24.790Z,30.75
2018-03-27T05:42:52.277Z,26.30
2018-03-27T05:45:19.756Z,32.08
2018-03-27T05:47:47.242Z,37.67
2018-03-27T05:50:14.701Z,28.80
2018-03-27T05:52:42.175Z,25.50
2018-03-27T05:55:09.656Z,28.17
2018-03-27T05:57:37.260Z,32.53
2018-03-27T06:00:04.753Z,29.52
2018-03-27T06:02:32.234Z,36.22
2018-03-27T06:04:59.868Z,37.45
2018-03-27T06:07:27.352Z,31.83
2018-03-27T06:09:54.830Z,29.48
2018-03-27T06:12:22.306Z,29.52
2018-03-27T06:14:50.561Z,28.80
2018-03-27T06:17:18.070Z,31.25
2018-03-27T06:19:45.554Z,30.80
2018-03-27T06:22:13.133Z,26.85
2018-03-27T06:24:42.118Z,30.00
2018-03-27T06:27:09.675Z,31.60
2018-03-27T06:29:37.232Z,30.12
2018-03-27T06:32:04.702Z,31.60
2018-03-27T06:34:32.259Z,30.00
2018-03-27T06:36:59.768Z,29.48
2018-03-27T06:39:27.240Z,35.25
2018-03-27T06:41:54.703Z,34.90
2018-03-27T06:44:22.186Z,26.45
2018-03-27T06:46:49.672Z,37.28
2018-03-27T06:49:17.908Z,32.17
2018-03-27T06:51:45.395Z,32.63
2018-03-27T06:54:13.626Z,29.73
2018-03-27T06:56:41.092Z,37.03
2018-03-27T06:59:08.601Z,33.83
2018-03-27T07:01:36.791Z,34.92
2018-03-27T07:04:04.303Z,27.52
2018-03-27T07:06:31.860Z,28.15
2018-03-27T07:09:01.818Z,32.47
2018-03-27T07:11:30.044Z,28.87
2018-03-27T07:13:57.601Z,32.78
2018-03-27T07:16:25.098Z,23.15
2018-03-27T07:18:52.623Z,22.27
2018-03-27T07:21:20.214Z,17.95
2018-03-27T07:23:48.433Z,21.55
2018-03-27T07:26:15.888Z,23.90
2018-03-27T07:28:43.362Z,22.27
2018-03-27T07:31:10.834Z,21.42
2018-03-27T07:33:38.301Z,22.67
2018-03-27T07:36:06.516Z,22.15
2018-03-27T07:38:34.034Z,23.48
2018-03-27T07:41:02.303Z,20.48
2018-03-27T07:43:30.543Z,23.02
2018-03-27T07:45:58.072Z,23.87
2018-03-27T07:48:25.585Z,27.20
2018-03-27T07:50:53.154Z,22.60
2018-03-27T07:53:21.420Z,24.58
2018-03-27T07:55:48.901Z,22.48
2018-03-27T07:58:16.476Z,26.27
2018-03-27T08:00:44.678Z,31.62
2018-03-27T08:03:12.136Z,24.17
2018-03-27T08:05:39.612Z,18.65
2018-03-27T08:08:07.088Z,18.95
2018-03-27T08:10:35.329Z,18.37
2018-03-27T08:13:02.800Z,18.80
2018-03-27T08:15:30.283Z,21.67
2018-03-27T08:17:58.508Z,19.30
2018-03-27T08:20:25.998Z,21.55
2018-03-27T08:22:54.984Z,21.92
2018-03-27T08:25:22.459Z,17.45
2018-03-27T08:27:50.733Z,15.13
2018-03-27T08:30:18.961Z,17.12
2018-03-27T08:32:46.430Z,18.30
2018-03-27T08:35:14.006Z,19.27
2018-03-27T08:37:42.238Z,14.18
2018-03-27T08:40:09.741Z,14.82
2018-03-27T08:42:37.251Z,12.30
2018-03-27T08:45:05.254Z,14.48
2018-03-27T08:47:32.825Z,17.35
2018-03-27T08:50:00.287Z,15.25
2018-03-27T08:52:27.778Z,16.70
2018-03-27T08:54:55.246Z,19.02
2018-03-27T08:57:22.732Z,17.45
2018-03-27T08:59:50.213Z,13.18
2018-03-27T09:02:17.775Z,15.15
2018-03-27T09:04:45.248Z,14.57
2018-03-27T09:07:13.506Z,14.23
2018-03-27T09:09:40.968Z,15.90
2018-03-27T09:12:09.202Z,16.87
2018-03-27T09:14:36.688Z,13.77
2018-03-27T09:17:04.260Z,15.63
2018-03-27T09:19:32.514Z,18.48
2018-03-27T09:21:59.990Z,17.75
2018-03-27T09:24:28.224Z,12.35
2018-03-27T09:26:55.726Z,15.80
2018-03-27T09:29:24.106Z,14.40
2018-03-27T09:31:52.425Z,18.87
2018-03-27T09:34:19.938Z,20.30
2018-03-27T09:36:47.425Z,14.30
2018-03-27T09:39:14.899Z,16.80
2018-03-27T09:41:42.525Z,21.50
2018-03-27T09:44:10.837Z,13.93
2018-03-27T09:46:38.317Z,15.77
2018-03-27T09:49:05.789Z,14.70
2018-03-27T09:51:33.274Z,13.00
2018-03-27T09:54:01.534Z,17.30
2018-03-27T09:56:29.776Z,11.30
2018-03-27T09:58:57.254Z,15.00
2018-03-27T10:01:27.671Z,9.60
2018-03-27T10:03:55.155Z,10.65
2018-03-27T10:06:23.409Z,11.23
2018-03-27T10:08:50.922Z,13.27
2018-03-27T10:11:19.146Z,13.63
2018-03-27T10:13:46.626Z,8.30
2018-03-27T10:16:14.108Z,13.98
2018-03-27T10:18:41.598Z,12.60
2018-03-27T10:21:09.077Z,9.77
2018-03-27T10:23:36.746Z,13.02
2018-03-27T10:26:04.209Z,10.30
2018-03-27T10:28:32.445Z,13.57
2018-03-27T10:30:59.922Z,11.70
2018-03-27T10:33:27.486Z,13.38
2018-03-27T10:35:54.953Z,10.65
2018-03-27T10:38:22.414Z,8.90
2018-03-27T10:40:50.652Z,8.75
2018-03-27T10:43:18.118Z,9.27
2018-03-27T10:45:45.653Z,10.25
2018-03-27T10:48:13.357Z,7.75
2018-03-27T10:50:40.816Z,10.70
2018-03-27T10:53:09.080Z,8.30
2018-03-27T10:55:36.567Z,9.23
2018-03-27T10:58:04.353Z,9.32
2018-03-27T11:00:31.861Z,8.30
2018-03-27T11:02:59.330Z,8.85
2018-03-27T11:05:27.586Z,10.15
2018-03-27T11:07:55.053Z,11.70
2018-03-27T11:10:23.292Z,9.38
2018-03-27T11:12:50.785Z,10.73
2018-03-27T11:15:18.253Z,10.13
2018-03-27T11:17:46.516Z,7.47
2018-03-27T11:20:14.038Z,9.00
2018-03-27T11:22:41.535Z,10.10
2018-03-27T11:25:08.997Z,10.50
2018-03-27T11:27:37.254Z,11.57
2018-03-27T11:30:04.720Z,9.93
2018-03-27T11:32:32.193Z,8.87
2018-03-27T11:34:59.648Z,7.57
2018-03-27T11:37:27.880Z,8.80
2018-03-27T11:39:55.373Z,10.77
2018-03-27T11:42:22.846Z,9.52
2018-03-27T11:44:51.192Z,17.15
2018-03-27T11:47:18.654Z,8.52
2018-03-27T11:49:46.135Z,10.90
2018-03-27T11:52:14.381Z,10.52
2018-03-27T11:54:41.894Z,8.95
2018-03-27T11:57:09.352Z,9.95
2018-03-27T11:59:36.856Z,8.60
2018-03-27T12:02:04.317Z,9.65
2018-03-27T12:04:32.558Z,9.98
2018-03-27T12:07:00.025Z,7.25
2018-03-27T12:09:27.508Z,9.70
2018-03-27T12:11:54.974Z,10.38
2018-03-27T12:14:23.234Z,8.10
2018-03-27T12:16:50.793Z,6.80
2018-03-27T12:19:18.249Z,9.15
2018-03-27T12:21:45.715Z,8.77
2018-03-27T12:24:13.167Z,12.85
2018-03-27T12:26:40.632Z,10.82
2018-03-27T12:29:08.094Z,16.33
2018-03-27T12:31:36.338Z,10.30
2018-03-27T12:34:03.897Z,9.50
2018-03-27T12:36:31.369Z,10.40
2018-03-27T12:38:58.920Z,8.43
2018-03-27T12:41:26.485Z,10.15
2018-03-27T12:43:53.947Z,9.45
2018-03-27T12:46:22.176Z,11.35
2018-03-27T12:48:49.651Z,12.70
2018-03-27T12:51:17.125Z,8.20
2018-03-27T12:53:44.638Z,8.10
2018-03-27T12:56:12.141Z,7.55
2018-03-27T12:58:39.596Z,10.32
2018-03-27T13:01:07.069Z,10.93
2018-03-27T13:03:34.621Z,10.02
2018-03-27T13:06:02.174Z,12.27
2018-03-27T13:08:30.440Z,9.23
2018-03-27T13:10:59.429Z,8.80
2018-03-27T13:13:26.897Z,7.45
2018-03-27T13:15:54.448Z,25.35
2018-03-27T13:18:21.913Z,14.30
2018-03-27T13:20:49.380Z,11.38
2018-03-27T13:23:16.837Z,11.15
2018-03-27T13:25:44.393Z,9.70
2018-03-27T13:28:11.860Z,13.70
2018-03-27T13:30:40.104Z,9.75
2018-03-27T13:33:07.568Z,17.98
2018-03-27T13:35:35.044Z,7.50
2018-03-27T13:38:02.593Z,8.93
2018-03-27T13:40:30.153Z,12.32
2018-03-27T13:42:57.621Z,10.05
2018-03-27T13:45:25.849Z,7.93
2018-03-27T13:47:53.338Z,11.73
2018-03-27T13:50:20.819Z,12.98
2018-03-27T13:52:49.054Z,10.02
2018-03-27T13:55:16.581Z,10.55
2018-03-27T13:57:44.050Z,10.10
2018-03-27T14:00:11.533Z,10.30
2018-03-27T14:02:39.015Z,9.15
2018-03-27T14:05:07.284Z,8.15
2018-03-27T14:07:35.530Z,9.35
2018-03-27T14:10:03.009Z,10.63
2018-03-27T14:12:31.262Z,11.85
2018-03-27T14:14:58.755Z,7.62
2018-03-27T14:17:27.014Z,8.70
2018-03-27T14:19:54.475Z,9.30
2018-03-27T14:22:22.737Z,8.82
2018-03-27T14:24:50.309Z,6.87
2018-03-27T14:27:17.876Z,10.32
2018-03-27T14:29:46.113Z,8.70
2018-03-27T14:32:13.684Z,10.55
2018-03-27T14:34:41.178Z,11.90
2018-03-27T14:37:08.767Z,8.97
2018-03-27T14:39:36.237Z,7.68
2018-03-27T14:42:03.717Z,10.13
2018-03-27T14:44:31.316Z,15.55
2018-03-27T14:46:59.567Z,9.00
2018-03-27T14:49:27.892Z,11.50
2018-03-27T14:51:55.378Z,10.65
2018-03-27T14:54:22.943Z,14.67
2018-03-27T14:56:50.521Z,11.43
2018-03-27T14:59:17.990Z,10.13
2018-03-27T15:01:46.221Z,13.20
2018-03-27T15:04:13.690Z,12.67
2018-03-27T15:06:41.260Z,7.30
2018-03-27T15:09:08.878Z,8.23
2018-03-27T15:11:36.337Z,8.17
2018-03-27T15:14:04.021Z,9.53
2018-03-27T15:16:31.496Z,9.67
2018-03-27T15:18:58.956Z,9.43
2018-03-27T15:21:26.505Z,10.73
2018-03-27T15:23:53.974Z,11.60
2018-03-27T15:26:22.249Z,9.27
2018-03-27T15:28:49.803Z,7.30
2018-03-27T15:31:17.269Z,8.47
2018-03-27T15:33:44.841Z,11.03
2018-03-27T15:36:12.315Z,8.77
2018-03-27T15:38:39.778Z,9.30
2018-03-27T15:41:07.288Z,8.00
2018-03-27T15:43:34.852Z,10.40
2018-03-27T15:46:02.315Z,9.80
2018-03-27T15:48:29.865Z,7.07
2018-03-27T15:50:57.338Z,7.80
2018-03-27T15:53:25.610Z,9.20
2018-03-27T15:55:53.070Z,7.80
2018-03-27T15:58:21.324Z,6.20
2018-03-27T16:00:48.902Z,12.73
2018-03-27T16:03:17.133Z,8.53
2018-03-27T16:05:44.601Z,9.00
2018-03-27T16:08:12.071Z,6.13
2018-03-27T16:10:39.542Z,9.13
2018-03-27T16:13:07.044Z,7.67
2018-03-27T16:15:34.549Z,8.97
2018-03-27T16:18:02.111Z,9.60
2018-03-27T16:20:29.577Z,8.30
2018-03-27T16:22:57.070Z,10.83
2018-03-27T16:25:24.537Z,7.57
2018-03-27T16:27:52.008Z,6.73
2018-03-27T16:30:19.474Z,7.20
2018-03-27T16:32:47.058Z,8.93
2018-03-27T16:35:14.511Z,7.70
2018-03-27T16:37:42.120Z,6.87
2018-03-27T16:40:09.728Z,8.10
2018-03-27T16:42:37.994Z,10.60
2018-03-27T16:45:05.444Z,8.53
2018-03-27T16:47:32.919Z,10.13
2018-03-27T16:50:00.476Z,9.17
2018-03-27T16:52:27.966Z,9.47
2018-03-27T16:54:55.436Z,8.67
2018-03-27T16:57:22.928Z,9.10
2018-03-27T16:59:50.401Z,10.27
2018-03-27T17:02:18.287Z,9.85
2018-03-27T17:04:46.590Z,12.13
2018-03-27T17:07:14.109Z,7.75
2018-03-27T17:09:57.500Z,7.00
2018-03-27T17:12:24.998Z,11.68
2018-03-27T17:15:07.340Z,9.15
2018-03-27T17:17:34.800Z,8.00
2018-03-27T17:20:02.284Z,9.15
2018-03-27T17:22:29.753Z,7.85
2018-03-27T17:24:57.221Z,9.55
2018-03-27T17:27:24.790Z,8.55
2018-03-27T17:29:53.037Z,14.00
2018-03-27T17:32:20.528Z,9.43
2018-03-27T17:34:48.807Z,9.75
2018-03-27T17:37:17.238Z,8.27
2018-03-27T17:39:44.717Z,9.60
2018-03-27T17:42:12.238Z,11.88
2018-03-27T17:44:39.775Z,8.68
2018-03-27T17:47:07.998Z,8.13
2018-03-27T17:49:35.523Z,8.07
2018-03-27T17:52:03.024Z,8.65
2018-03-27T17:54:30.521Z,9.32
2018-03-27T17:56:58.749Z,15.57
2018-03-27T17:59:26.221Z,9.70
2018-03-27T18:01:53.697Z,11.57
2018-03-27T18:04:21.954Z,6.90
2018-03-27T18:06:49.529Z,7.93
2018-03-27T18:09:17.760Z,6.22
2018-03-27T18:11:45.233Z,14.45
2018-03-27T18:14:12.806Z,8.32
2018-03-27T18:16:40.276Z,7.25
2018-03-27T18:19:07.821Z,6.78
2018-03-27T18:21:35.273Z,8.40
2018-03-27T18:24:02.834Z,8.90
2018-03-27T18:26:30.301Z,11.23
2018-03-27T18:28:57.780Z,8.43
2018-03-27T18:31:26.001Z,10.43
2018-03-27T18:33:53.492Z,8.82
2018-03-27T18:36:21.727Z,7.53
2018-03-27T18:38:49.192Z,7.90
2018-03-27T18:41:16.683Z,7.10
2018-03-27T18:43:44.947Z,8.27
2018-03-27T18:46:12.392Z,8.32
2018-03-27T18:48:39.858Z,5.78
2018-03-27T18:51:07.321Z,7.00
2018-03-27T18:53:34.791Z,6.82
2018-03-27T18:56:03.035Z,8.65
2018-03-27T18:58:30.496Z,8.35
2018-03-27T19:00:57.963Z,7.35
2018-03-27T19:03:25.512Z,9.20
2018-03-27T19:05:53.086Z,8.65
2018-03-27T19:08:20.571Z,7.40
2018-03-27T19:10:48.036Z,7.43
2018-03-27T19:13:15.502Z,10.02
2018-03-27T19:15:43.009Z,11.63
2018-03-27T19:18:10.482Z,12.40
2018-03-27T19:20:38.716Z,8.57
2018-03-27T19:23:06.253Z,9.18
2018-03-27T19:25:33.642Z,8.55
2018-03-27T19:28:01.107Z,8.02
2018-03-27T19:30:28.720Z,10.30
2018-03-27T19:32:56.292Z,13.52
2018-03-27T19:35:23.789Z,13.50
2018-03-27T19:37:51.250Z,12.82
2018-03-27T19:40:18.844Z,11.52
2018-03-27T19:42:46.366Z,8.52
2018-03-27T19:45:13.926Z,11.65
2018-03-27T19:47:41.390Z,8.27
2018-03-27T19:50:09.650Z,13.45
2018-03-27T19:52:37.211Z,13.50
2018-03-27T19:55:04.682Z,10.23
2018-03-27T19:57:32.922Z,8.77
2018-03-27T20:00:00.384Z,11.95
2018-03-27T20:02:27.854Z,10.27
2018-03-27T20:04:55.409Z,14.57
2018-03-27T20:07:23.072Z,9.75
2018-03-27T20:09:50.559Z,10.77
2018-03-27T20:12:18.109Z,10.02
2018-03-27T20:14:46.346Z,9.88
2018-03-27T20:17:13.805Z,8.45
2018-03-27T20:19:41.331Z,11.25
2018-03-27T20:22:08.801Z,8.18
2018-03-27T20:24:36.271Z,9.95
2018-03-27T20:27:03.746Z,10.43
2018-03-27T20:29:31.298Z,12.32
2018-03-27T20:31:58.869Z,8.65
2018-03-27T20:34:26.417Z,11.30
2018-03-27T20:36:53.879Z,9.27
2018-03-27T20:39:21.340Z,8.82
2018-03-27T20:41:49.626Z,9.95
2018-03-27T20:44:17.858Z,8.35
2018-03-27T20:46:45.351Z,8.77
2018-03-27T20:49:12.895Z,7.12
2018-03-27T20:51:40.352Z,10.15
2018-03-27T20:54:07.935Z,10.95
2018-03-27T20:56:36.169Z,9.38
2018-03-27T20:59:03.636Z,9.75
2018-03-27T21:01:31.097Z,6.20
2018-03-27T21:03:58.566Z,8.32
2018-03-27T21:06:26.019Z,7.65
2018-03-27T21:08:53.477Z,7.30
2018-03-27T21:11:21.721Z,9.52
2018-03-27T21:13:49.185Z,10.10
2018-03-27T21:16:16.663Z,9.13
2018-03-27T21:18:44.125Z,9.07
2018-03-27T21:21:11.723Z,8.85
2018-03-27T21:23:39.934Z,10.18
2018-03-27T21:26:07.394Z,10.07
2018-03-27T21:28:34.849Z,7.68
2018-03-27T21:31:02.317Z,8.20
2018-03-27T21:33:29.777Z,7.87
2018-03-27T21:35:57.250Z,9.38
2018-03-27T21:38:25.522Z,7.97
2018-03-27T21:40:52.981Z,7.37
2018-03-27T21:43:21.215Z,7.57
2018-03-27T21:45:48.804Z,6.43
2018-03-27T21:48:16.275Z,6.97
2018-03-27T21:50:43.790Z,8.10
2018-03-27T21:53:11.250Z,7.60
2018-03-27T21:55:38.730Z,11.20
2018-03-27T21:58:06.261Z,9.60
2018-03-27T22:00:34.465Z,8.20
2018-03-27T22:03:01.924Z,7.12
2018-03-27T22:05:29.472Z,9.48
2018-03-27T22:07:56.934Z,7.87
2018-03-27T22:10:24.400Z,8.25
2018-03-27T22:12:51.948Z,8.05
2018-03-27T22:15:19.422Z,8.45
2018-03-27T22:17:46.885Z,11.23
2018-03-27T22:20:15.132Z,7.30
2018-03-27T22:22:42.653Z,9.93
2018-03-27T22:25:10.153Z,7.40
2018-03-27T22:27:37.707Z,7.05
2018-03-27T22:30:05.179Z,8.45
2018-03-27T22:32:32.665Z,7.97
2018-03-27T22:35:00.271Z,21.30
2018-03-27T22:37:27.738Z,7.75
2018-03-27T22:39:55.306Z,10.60
2018-03-27T22:42:22.773Z,10.07
2018-03-27T22:44:51.046Z,10.80
2018-03-27T22:47:18.497Z,9.60
2018-03-27T22:49:46.015Z,13.05
2018-03-27T22:52:14.226Z,11.65
2018-03-27T22:54:41.676Z,13.25
2018-03-27T22:57:09.242Z,18.60
2018-03-27T22:59:36.707Z,11.98
2018-03-27T23:02:04.165Z,9.73
2018-03-27T23:04:31.724Z,11.20
2018-03-27T23:06:59.264Z,9.88
2018-03-27T23:09:26.741Z,11.27
2018-03-27T23:11:54.990Z,12.13
2018-03-27T23:14:22.463Z,13.70
2018-03-27T23:16:50.022Z,12.80
2018-03-27T23:19:17.581Z,8.27
2018-03-27T23:21:45.136Z,10.98
2018-03-27T23:24:12.702Z,12.00
2018-03-27T23:26:40.261Z,14.18
2018-03-27T23:29:07.805Z,10.40
2018-03-27T23:31:35.298Z,12.25
2018-03-27T23:34:02.754Z,12.55
2018-03-27T23:36:30.985Z,11.93
2018-03-27T23:38:58.452Z,11.60
2018-03-27T23:41:25.906Z,11.30
2018-03-27T23:43:53.372Z,13.23
2018-03-27T23:46:20.934Z,12.85
2018-03-27T23:48:48.402Z,12.63
2018-03-27T23:51:15.894Z,20.48
2018-03-27T23:53:43.423Z,16.12
2018-03-27T23:56:11.678Z,12.07
2018-03-27T23:58:39.143Z,14.82
